Flight Track Log - Related Links

Times and Time Zones

All times are in EDT time to prevent confusion due to time zone crossing. See the GJS3710 flight status page for this flight to view local times or setup timezone preferences in your user account.

Time Position Orientation Groundspeed Altitude Reporting Facility
EDT Latitude Longitude Course Direction KTS MPH feet Rate Location/Type
Sun 09:11:00 PM 42.1770 -87.3193 66° East  Level FlightAware Approximate
Sun 09:12:00 PM 42.2271 -87.1688 66° East  Level FlightAware Approximate
Sun 09:13:00 PM 42.2667 -87.0152 90° East  Level FlightAware Approximate
Sun 09:14:00 PM 42.2739 -86.8503 86° East  Level FlightAware Approximate
Sun 09:15:00 PM 42.2817 -86.6855 86° East  Level FlightAware Approximate
Sun 09:16:00 PM 42.2993 -86.5221 80° East  Level FlightAware Approximate
Sun 09:17:00 PM 42.3000 -86.3570 90° East  Level FlightAware Approximate
Sun 09:18:00 PM 42.3001 -86.1917 90° East  Level FlightAware Approximate
Sun 09:19:00 PM 42.3000 -86.0265 90° East  Level FlightAware Approximate
Sun 09:20:00 PM 42.3001 -85.8613 90° East  Level FlightAware Approximate
Sun 09:21:00 PM 42.3000 -85.6960 90° East  Level FlightAware Approximate
Sun 09:22:00 PM 42.3001 -85.5308 90° East  Level FlightAware Approximate
Sun 09:23:00 PM 42.3001 -85.3655 90° East  Level FlightAware Approximate
Sun 09:24:00 PM 42.3000 -85.2003 90° East  Level FlightAware Approximate
Sun 09:25:00 PM 42.3000 -85.0350 90° East  Level FlightAware Approximate
Sun 09:26:00 PM 42.2834 -84.8812 90° East  Level FlightAware Approximate
Sun 09:27:00 PM 42.2834 -84.7160 90° East  Level FlightAware Approximate
Sun 09:28:00 PM 42.2834 -84.5508 90° East  Level FlightAware Approximate
Sun 09:29:00 PM 42.2942 -84.3869 80° East  Level FlightAware Approximate
Sun 09:30:00 PM 42.3161 -84.2244 80° East  Level FlightAware Approximate
Sun 09:31:00 PM 42.3377 -84.0617 80° East  Level FlightAware Approximate
Sun 09:32:00 PM 42.3591 -83.8989 80° East  Level FlightAware Approximate
Sun 09:33:00 PM 42.3804 -83.7359 80° East  Level FlightAware Approximate
Sun 09:34:00 PM 42.4005 -83.5728 86° East  Level FlightAware Approximate
Sun 09:35:00 PM 42.4089 -83.4077 86° East  Level FlightAware Approximate
Sun 09:36:00 PM 42.4169 -83.2425 88° East  Level FlightAware Approximate
Sun 09:37:00 PM 42.4219 -83.0770 88° East  Level FlightAware Approximate
Sun 09:38:00 PM 42.4267 -82.9116 88° East  Level FlightAware Approximate
Sun 09:39:00 PM 42.4313 -82.7461 88° East  Level FlightAware Approximate
Sun 09:40:00 PM 42.4356 -82.5807 88° East  Level FlightAware Approximate
Sun 09:41:00 PM 42.4396 -82.4151 88° East  Level FlightAware Approximate
Sun 09:42:00 PM 42.4435 -82.2496 88° East  Level FlightAware Approximate
Sun 09:43:00 PM 42.4470 -82.0841 88° East  Level FlightAware Approximate
Sun 09:44:00 PM 42.4504 -81.9185 88° East  Level FlightAware Approximate
Sun 09:45:00 PM 42.4535 -81.7529 88° East  Level FlightAware Approximate
Sun 09:46:00 PM 42.4564 -81.5873 89° East  Level FlightAware Approximate
Sun 09:47:00 PM 42.4590 -81.4217 89° East  Level FlightAware Approximate
Sun 09:48:00 PM 42.4614 -81.2561 89° East  Level FlightAware Approximate
Sun 09:49:00 PM 42.4636 -81.0904 89° East  Level FlightAware Approximate
Sun 09:50:00 PM 42.4655 -80.9248 89° East  Level FlightAware Approximate
Sun 09:51:00 PM 42.4677 -80.7591 89° East  Level FlightAware Approximate
Sun 09:52:00 PM 42.4704 -80.5934 89° East  Level FlightAware Approximate
Sun 09:53:00 PM 42.4728 -80.4278 89° East  Level FlightAware Approximate
Sun 09:54:00 PM 42.4750 -80.2621 89° East  Level FlightAware Approximate
Sun 09:55:00 PM 42.4770 -80.0964 89° East  Level FlightAware Approximate
Sun 09:56:00 PM 42.4788 -79.9307 89° East  Level FlightAware Approximate
Sun 09:57:00 PM 42.4803 -79.7650 89° East  Level FlightAware Approximate
Sun 09:58:00 PM 42.4815 -79.5993 89° East  Level FlightAware Approximate
Sun 09:59:00 PM 42.4825 -79.4336 89° East  Level FlightAware Approximate
Sun 10:00:00 PM 42.4833 -79.2679 90° East  Level FlightAware Approximate
Sun 10:01:00 PM 42.4941 -79.1028 85° East  Level FlightAware Approximate
Sun 10:02:00 PM 42.5047 -78.9377 85° East  Level FlightAware Approximate
Sun 10:03:00 PM 42.5150 -78.7725 85° East  Level FlightAware Approximate
Sun 10:04:00 PM 42.5252 -78.6072 85° East  Level FlightAware Approximate
Sun 10:05:00 PM 42.5350 -78.4419 85° East  Level FlightAware Approximate
Sun 10:06:00 PM 42.5447 -78.2765 85° East  Level FlightAware Approximate
Sun 10:07:00 PM 42.5541 -78.1111 86° East  Level FlightAware Approximate
Sun 10:08:00 PM 42.5633 -77.9457 86° East  Level FlightAware Approximate
Sun 10:09:00 PM 42.5740 -77.7804 84° East  Level FlightAware Approximate
Sun 10:10:00 PM 42.5855 -77.6151 85° East  Level FlightAware Approximate
Sun 10:11:00 PM 42.5968 -77.4498 85° East  Level FlightAware Approximate
Sun 10:12:00 PM 42.6078 -77.2845 85° East  Level FlightAware Approximate
Sun 10:13:00 PM 42.6182 -77.1190 86° East  Level FlightAware Approximate
Sun 10:14:00 PM 42.6262 -76.9533 86° East  Level FlightAware Approximate
Sun 10:15:00 PM 42.6333 -76.7875 90° East  Level FlightAware Approximate
Sun 10:16:00 PM 42.6394 -76.6218 84° East  Level FlightAware Approximate
Sun 10:17:00 PM 42.6500 -76.4564 90° East  Level FlightAware Approximate
Sun 10:18:00 PM 42.6516 -76.2904 77° East  Level FlightAware Approximate
Sun 10:19:00 PM 42.6667 -76.1265 90° East  Level FlightAware Approximate
Sun 10:20:00 PM 42.6667 -75.9603 90° East  Level FlightAware Approximate
Sun 10:21:00 PM 42.6807 -75.7966 75° East  Level FlightAware Approximate
Sun 10:22:00 PM 42.6834 -75.6309 90° East  Level FlightAware Approximate
Sun 10:23:00 PM 42.6833 -75.4646 90° East  Level FlightAware Approximate
Sun 10:24:00 PM 42.6909 -75.2988 85° East  Level FlightAware Approximate
Sun 10:25:00 PM 42.7014 -75.1331 85° East  Level FlightAware Approximate
Sun 10:26:00 PM 42.7116 -74.9674 85° East  Level FlightAware Approximate
Sun 10:27:00 PM 42.7167 -74.8013 90° East  Level FlightAware Approximate
Sun 10:28:00 PM 42.7167 -74.6349 90° East  Level FlightAware Approximate
Sun 10:29:00 PM 42.7234 -74.4691 83° East  Level FlightAware Approximate
Sun 10:30:00 PM 42.7334 -74.3035 90° East  Level FlightAware Approximate
Sun 10:31:00 PM 42.7333 -74.1371 90° East  Level FlightAware Approximate
Sun 10:32:00 PM 42.7333 -73.9707 90° East  Level FlightAware Approximate
Sun 10:33:00 PM 42.7333 -73.8043 90° East  Level FlightAware Approximate
Sun 10:34:00 PM 42.7333 -73.8000 90° East  Level FlightAware Approximate
Sun 10:35:00 PM 42.7491 -73.8020 90° East  Level Estimated
Sun 10:36:00 PM 42.7491 -73.8020 90° East  Level Estimated
Sun 10:37:00 PM 42.7491 -73.8020 90° East  Level Estimated
Sun 10:38:00 PM 42.7491 -73.8020 90° East  Level Estimated
Sun 10:39:00 PM 42.7491 -73.8020 90° East  Level Estimated
Sun 10:40:00 PM 42.7491 -73.8020 90° East  Level Estimated
Sun 10:41:00 PM 42.7491 -73.8020 90° East  Level Estimated
Sun 10:42:00 PM 42.7491 -73.8020 90° East  Level Estimated
Sun 10:43:00 PM 42.7491 -73.8020 90° East  Level Estimated
Sun 10:44:00 PM 42.7491 -73.8020 90° East  Level Estimated

Login

Don't have an account? Register now (free) for customized features, flight alerts, and more!